Time;durP1;ratioP1;P1;durP2;ratioP2;P2;SDS_P1;SDS_P2;PMS_P1;PMS_P2;Temp;Humidity;BMP_temperature;BMP_pressure;BME280_temperature;BME280_humidity;BME280_pressure;Samples;Min_cycle;Max_cycle;Signal;HPM_P1;HPM_P2
2022/06/22 00:02:18;;;;;;;2.53;1.80;;;;;;;26.99;nan;101320.34;5023500;28;20060;-66
2022/06/22 00:04:48;;;;;;;2.88;2.08;;;;;;;27.00;nan;101329.22;5031209;28;20024;-66
2022/06/22 00:07:26;;;;;;;3.40;2.00;;;;;;;26.98;nan;101331.97;5025014;28;20037;-67
2022/06/22 00:10:37;;;;;;;2.88;1.80;;;;;;;26.98;nan;101333.78;4996401;28;20026;-67
2022/06/22 00:13:04;;;;;;;2.80;1.85;;;;;;;26.98;nan;101320.41;4992937;28;20034;-66
2022/06/22 00:15:39;;;;;;;3.03;1.90;;;;;;;26.94;nan;101319.69;5011513;28;20026;-67
2022/06/22 00:18:29;;;;;;;2.80;1.95;;;;;;;26.93;nan;101317.94;5019385;28;20112;-68
2022/06/22 00:21:01;;;;;;;2.40;1.80;;;;;;;26.94;nan;101322.38;5016486;28;20524;-66
2022/06/22 00:23:41;;;;;;;2.65;1.83;;;;;;;26.92;nan;101316.22;5021286;28;20116;-67
2022/06/22 00:26:17;;;;;;;3.92;2.05;;;;;;;26.91;nan;101317.16;5032098;28;20369;-67
2022/06/22 00:28:51;;;;;;;3.22;2.00;;;;;;;26.92;nan;101323.38;5012784;28;20048;-66
2022/06/22 00:31:42;;;;;;;2.63;2.00;;;;;;;26.91;nan;101326.97;5022251;28;20068;-67
2022/06/22 00:34:10;;;;;;;3.88;2.13;;;;;;;26.90;nan;101322.56;5027588;28;20115;-67
2022/06/22 00:36:49;;;;;;;3.40;1.90;;;;;;;26.89;nan;101326.19;5032008;28;20033;-66
2022/06/22 00:39:21;;;;;;;2.20;1.85;;;;;;;26.86;nan;101326.28;5022127;28;20038;-67
2022/06/22 00:42:00;;;;;;;3.13;1.80;;;;;;;26.87;nan;101323.56;5012312;28;20037;-68
2022/06/22 00:44:32;;;;;;;3.63;1.80;;;;;;;26.86;nan;101321.81;5018148;28;20021;-67
2022/06/22 00:47:04;;;;;;;2.70;1.73;;;;;;;26.86;nan;101320.94;5014105;28;20045;-67
2022/06/22 00:49:31;;;;;;;3.92;1.88;;;;;;;26.84;nan;101322.81;5037210;28;20025;-66
2022/06/22 00:52:05;;;;;;;3.10;2.10;;;;;;;26.83;nan;101319.31;5018510;28;20038;-67
2022/06/22 00:54:33;;;;;;;2.50;1.77;;;;;;;26.82;nan;101316.69;5020254;28;20096;-66
2022/06/22 00:57:10;;;;;;;2.40;1.80;;;;;;;26.81;nan;101315.81;5015575;28;20036;-66
2022/06/22 00:59:54;;;;;;;2.78;1.98;;;;;;;26.81;nan;101321.16;5019281;28;20036;-66
2022/06/22 01:02:38;;;;;;;2.55;1.80;;;;;;;26.81;nan;101325.66;5031957;28;20029;-66
2022/06/22 01:05:10;;;;;;;2.63;1.70;;;;;;;26.80;nan;101323.91;5015695;28;20022;-66
2022/06/22 01:08:06;;;;;;;2.30;1.90;;;;;;;26.78;nan;101318.63;5012065;28;20037;-67
2022/06/22 01:10:58;;;;;;;2.65;1.75;;;;;;;26.76;nan;101320.53;5020463;28;20068;-67
2022/06/22 01:13:41;;;;;;;2.00;1.80;;;;;;;26.76;nan;101312.50;5008119;28;20045;-67
2022/06/22 01:16:22;;;;;;;2.50;1.80;;;;;;;26.75;nan;101315.22;5028928;28;20051;-67
2022/06/22 01:19:03;;;;;;;2.80;1.80;;;;;;;26.74;nan;101319.72;5031640;28;20459;-67
2022/06/22 01:21:35;;;;;;;3.47;2.00;;;;;;;26.62;nan;101329.19;5022863;28;20377;-67
2022/06/22 01:24:13;;;;;;;2.63;1.83;;;;;;;26.71;nan;101332.38;5021531;28;20037;-66
2022/06/22 01:26:42;;;;;;;2.97;1.98;;;;;;;26.71;nan;101332.38;5022968;28;20067;-66
2022/06/22 01:29:13;;;;;;;3.83;1.90;;;;;;;26.71;nan;101337.72;5031428;28;20030;-68
2022/06/22 01:31:58;;;;;;;2.75;1.80;;;;;;;26.68;nan;101344.06;5031431;28;20128;-68
2022/06/22 01:34:28;;;;;;;2.33;1.65;;;;;;;26.70;nan;101336.84;5031796;28;20080;-67
2022/06/22 01:37:00;;;;;;;2.92;1.83;;;;;;;26.67;nan;101334.31;5015309;28;20036;-67
2022/06/22 01:39:26;;;;;;;2.92;1.90;;;;;;;26.67;nan;101329.81;5031012;28;20049;-66
2022/06/22 01:41:58;;;;;;;2.00;1.65;;;;;;;26.66;nan;101329.88;5022877;28;20033;-67
2022/06/22 01:44:33;;;;;;;2.58;1.70;;;;;;;26.66;nan;101328.09;5014089;28;20077;-66
2022/06/22 01:47:21;;;;;;;2.47;1.80;;;;;;;26.64;nan;101324.63;5018661;28;20030;-67
2022/06/22 01:50:26;;;;;;;2.50;1.80;;;;;;;26.63;nan;101328.25;5015668;28;20395;-67
2022/06/22 01:53:01;;;;;;;3.13;1.88;;;;;;;26.60;nan;101324.81;4989722;28;20030;-67
2022/06/22 01:55:26;;;;;;;2.05;1.70;;;;;;;26.58;nan;101332.06;5015206;28;20100;-66
2022/06/22 01:58:05;;;;;;;2.13;1.50;;;;;;;26.55;nan;101313.47;5021383;28;20041;-66
2022/06/22 02:00:30;;;;;;;2.67;1.75;;;;;;;26.54;nan;101314.41;5014087;28;20115;-66
2022/06/22 02:03:09;;;;;;;2.42;1.73;;;;;;;26.56;nan;101320.56;5019306;28;20460;-67
2022/06/22 02:05:45;;;;;;;2.50;1.80;;;;;;;26.53;nan;101326.91;5021902;28;20030;-66
2022/06/22 02:08:21;;;;;;;2.67;1.88;;;;;;;26.55;nan;101326.84;5029776;28;20025;-66
2022/06/22 02:10:56;;;;;;;2.30;1.73;;;;;;;26.54;nan;101328.66;5024832;28;20029;-66
2022/06/22 02:13:37;;;;;;;2.47;1.70;;;;;;;26.53;nan;101316.22;5031634;28;20039;-67
2022/06/22 02:16:20;;;;;;;2.10;1.75;;;;;;;26.52;nan;101322.53;5019774;28;20464;-67
2022/06/22 02:18:58;;;;;;;2.40;1.80;;;;;;;26.51;nan;101314.56;5017989;28;20036;-67
2022/06/22 02:21:39;;;;;;;1.90;1.63;;;;;;;26.50;nan;101323.53;5049871;28;20117;-66
2022/06/22 02:24:09;;;;;;;2.00;1.50;;;;;;;26.49;nan;101329.81;5025388;28;20064;-68
2022/06/22 02:26:45;;;;;;;1.60;1.42;;;;;;;26.48;nan;101336.09;5022172;28;20053;-67
2022/06/22 02:29:11;;;;;;;2.00;1.60;;;;;;;26.47;nan;101337.88;5021671;28;20048;-66
2022/06/22 02:31:37;;;;;;;2.13;1.67;;;;;;;26.46;nan;101338.84;5026324;28;20096;-66
2022/06/22 02:34:02;;;;;;;2.03;1.60;;;;;;;26.47;nan;101339.72;5019343;28;20049;-67
2022/06/22 02:36:31;;;;;;;2.17;1.63;;;;;;;26.45;nan;101337.09;5034381;28;20083;-66
2022/06/22 02:39:00;;;;;;;3.05;1.90;;;;;;;26.45;nan;101341.59;5028021;28;20500;-67
2022/06/22 02:44:35;;;;;;;2.28;1.58;;;;;;;26.40;nan;101333.78;5017080;28;20096;-67
2022/06/22 02:47:13;;;;;;;1.73;1.58;;;;;;;26.41;nan;101334.66;5027035;28;20033;-67
2022/06/22 02:49:46;;;;;;;2.00;1.58;;;;;;;26.40;nan;101331.09;5024122;28;20368;-67
2022/06/22 02:52:14;;;;;;;2.63;1.60;;;;;;;26.39;nan;101325.81;5021024;28;20522;-67
2022/06/22 02:54:46;;;;;;;2.00;1.63;;;;;;;26.37;nan;101331.22;5024220;28;20083;-66
2022/06/22 02:57:17;;;;;;;2.38;1.63;;;;;;;26.38;nan;101334.78;5024469;28;20041;-66
2022/06/22 02:59:46;;;;;;;2.00;1.48;;;;;;;26.36;nan;101337.50;5015495;28;20456;-67
2022/06/22 03:02:12;;;;;;;2.08;1.60;;;;;;;26.36;nan;101336.63;5018313;28;20037;-67
2022/06/22 03:04:40;;;;;;;2.40;1.80;;;;;;;26.39;nan;101334.72;5015360;28;20032;-67
2022/06/22 03:07:06;;;;;;;2.30;1.63;;;;;;;26.39;nan;101331.16;5028143;28;20075;-67
2022/06/22 03:09:32;;;;;;;2.08;1.50;;;;;;;26.39;nan;101337.38;5013488;28;20026;-66
2022/06/22 03:11:59;;;;;;;1.95;1.70;;;;;;;26.37;nan;101325.88;5023342;28;20041;-66
2022/06/22 03:14:36;;;;;;;1.70;1.50;;;;;;;26.37;nan;101330.34;5033290;28;20028;-67
2022/06/22 03:17:16;;;;;;;1.83;1.60;;;;;;;26.36;nan;101331.28;5016286;28;20068;-66
2022/06/22 03:20:14;;;;;;;2.15;1.60;;;;;;;26.35;nan;101319.72;5013499;28;20041;-68
2022/06/22 03:22:43;;;;;;;1.83;1.45;;;;;;;26.35;nan;101326.91;5010088;28;20108;-67
2022/06/22 03:25:35;;;;;;;1.50;1.38;;;;;;;26.34;nan;101330.50;5031063;28;20030;-66
2022/06/22 03:28:12;;;;;;;1.70;1.60;;;;;;;26.32;nan;101327.03;5024475;28;20076;-66
2022/06/22 03:30:57;;;;;;;1.70;1.42;;;;;;;26.32;nan;101327.91;5029931;28;20029;-67
2022/06/22 03:33:38;;;;;;;1.70;1.60;;;;;;;26.31;nan;101328.81;5031638;28;20040;-66
2022/06/22 03:36:29;;;;;;;1.70;1.60;;;;;;;26.30;nan;101328.88;5006661;28;20060;-66
2022/06/22 03:39:05;;;;;;;1.80;1.48;;;;;;;26.32;nan;101319.00;5018256;28;20057;-66
2022/06/22 03:41:35;;;;;;;1.95;1.55;;;;;;;26.30;nan;101313.72;5018914;28;20037;-67
2022/06/22 03:44:11;;;;;;;1.58;1.48;;;;;;;26.29;nan;101303.97;4995908;28;20026;-66
2022/06/22 03:46:45;;;;;;;1.33;1.23;;;;;;;26.27;nan;101295.16;5029464;28;20029;-67
2022/06/22 03:49:17;;;;;;;1.67;1.52;;;;;;;26.28;nan;101301.38;5023522;28;20034;-66
2022/06/22 03:52:03;;;;;;;1.60;1.50;;;;;;;26.26;nan;101296.09;5013075;28;20032;-67
2022/06/22 03:54:38;;;;;;;1.90;1.50;;;;;;;26.25;nan;101291.69;5027458;28;20021;-66
2022/06/22 03:57:07;;;;;;;1.83;1.50;;;;;;;26.26;nan;101290.75;5029001;28;20116;-66
2022/06/22 03:59:38;;;;;;;1.80;1.50;;;;;;;26.24;nan;101288.13;5025294;28;20033;-67
2022/06/22 04:02:03;;;;;;;1.60;1.38;;;;;;;26.24;nan;101289.94;5021067;28;20033;-66
2022/06/22 04:04:30;;;;;;;1.80;1.50;;;;;;;26.23;nan;101294.41;5019281;28;20048;-66
2022/06/22 04:06:55;;;;;;;2.75;1.63;;;;;;;26.22;nan;101287.31;5013032;28;20038;-67
2022/06/22 04:09:26;;;;;;;1.60;1.50;;;;;;;26.22;nan;101287.31;5012953;28;20044;-67
2022/06/22 04:11:57;;;;;;;2.55;1.60;;;;;;;26.22;nan;101289.13;5023758;28;20033;-66
2022/06/22 04:14:36;;;;;;;1.52;1.40;;;;;;;26.20;nan;101283.84;5012548;28;20488;-66
2022/06/22 04:17:20;;;;;;;2.75;1.67;;;;;;;26.19;nan;101283.91;5012556;28;20104;-66
2022/06/22 04:19:56;;;;;;;2.00;1.40;;;;;;;26.19;nan;101279.44;5011116;28;20033;-67
2022/06/22 04:22:27;;;;;;;2.15;1.50;;;;;;;26.20;nan;101280.28;5020580;28;20078;-67
2022/06/22 04:25:04;;;;;;;1.70;1.50;;;;;;;26.18;nan;101276.81;5014800;28;20768;-66
2022/06/22 04:27:37;;;;;;;1.67;1.40;;;;;;;26.17;nan;101289.31;5023340;28;20060;-66
2022/06/22 04:30:12;;;;;;;2.50;1.60;;;;;;;26.17;nan;101277.75;5014762;28;20092;-66
2022/06/22 04:32:44;;;;;;;1.70;1.50;;;;;;;26.16;nan;101271.56;5014383;28;20033;-67
2022/06/22 04:35:57;;;;;;;1.60;1.40;;;;;;;26.16;nan;101265.34;5025901;28;20430;-67
2022/06/22 04:38:34;;;;;;;1.67;1.40;;;;;;;26.15;nan;101264.47;5008472;28;20376;-67
2022/06/22 04:41:14;;;;;;;1.50;1.40;;;;;;;26.14;nan;101272.56;5032044;28;20079;-67
2022/06/22 04:43:40;;;;;;;2.03;1.48;;;;;;;26.15;nan;101275.16;5021302;28;20026;-67
2022/06/22 04:46:08;;;;;;;1.85;1.48;;;;;;;26.14;nan;101272.56;5021285;28;20038;-67
2022/06/22 04:48:40;;;;;;;1.60;1.40;;;;;;;26.13;nan;101270.81;5020829;28;20018;-67
2022/06/22 04:51:11;;;;;;;1.70;1.48;;;;;;;26.12;nan;101269.06;5029869;28;20040;-67
2022/06/22 04:53:46;;;;;;;2.35;1.50;;;;;;;26.11;nan;101272.69;5011119;28;20137;-67
2022/06/22 04:56:15;;;;;;;1.50;1.38;;;;;;;26.11;nan;101272.69;5021111;28;20041;-67
2022/06/22 04:58:47;;;;;;;1.60;1.40;;;;;;;26.12;nan;101274.41;5026732;28;20028;-67
2022/06/22 05:01:18;;;;;;;1.95;1.55;;;;;;;26.11;nan;101278.88;5010419;28;20464;-67
2022/06/22 05:03:43;;;;;;;1.40;1.30;;;;;;;26.11;nan;101286.91;5020436;28;20372;-66
2022/06/22 05:06:18;;;;;;;1.77;1.52;;;;;;;26.11;nan;101294.06;5010840;28;20030;-67
2022/06/22 05:08:52;;;;;;;2.22;1.50;;;;;;;26.11;nan;101307.41;5022484;28;20037;-66
2022/06/22 05:11:36;;;;;;;1.70;1.50;;;;;;;26.10;nan;101311.06;5017327;28;20032;-67
2022/06/22 05:14:09;;;;;;;1.95;1.70;;;;;;;26.10;nan;101309.25;5011228;28;20499;-66
2022/06/22 05:16:34;;;;;;;2.07;1.50;;;;;;;26.11;nan;101313.63;5005014;28;20068;-67
2022/06/22 05:19:01;;;;;;;2.00;1.40;;;;;;;26.08;nan;101324.47;5019090;28;20336;-67
2022/06/22 05:21:39;;;;;;;1.70;1.58;;;;;;;26.09;nan;101328.00;5016758;28;20108;-66
2022/06/22 05:24:10;;;;;;;1.55;1.45;;;;;;;26.08;nan;101334.28;5026800;28;20052;-67
2022/06/22 05:26:37;;;;;;;1.60;1.40;;;;;;;26.09;nan;101336.03;5012515;28;20026;-66
2022/06/22 05:29:02;;;;;;;1.52;1.42;;;;;;;26.11;nan;101339.47;5023335;28;20029;-67
2022/06/22 05:31:31;;;;;;;2.10;1.48;;;;;;;26.07;nan;101336.09;5021017;28;20029;-67
2022/06/22 05:34:02;;;;;;;1.70;1.40;;;;;;;26.07;nan;101335.22;5029080;28;20457;-67
2022/06/22 05:36:30;;;;;;;1.70;1.40;;;;;;;26.05;nan;101329.94;5014546;28;20026;-66
2022/06/22 05:38:59;;;;;;;1.58;1.35;;;;;;;26.07;nan;101332.53;5024494;28;20049;-67
2022/06/22 05:41:35;;;;;;;1.40;1.30;;;;;;;26.07;nan;101335.22;5029572;28;20034;-67
2022/06/22 05:44:05;;;;;;;1.50;1.40;;;;;;;26.07;nan;101333.41;5011723;28;20386;-67
2022/06/22 05:46:32;;;;;;;1.50;1.40;;;;;;;26.10;nan;101332.44;5021407;28;20527;-67
2022/06/22 05:48:58;;;;;;;1.50;1.30;;;;;;;26.09;nan;101328.88;5033751;28;20033;-67
2022/06/22 05:51:50;;;;;;;1.50;1.40;;;;;;;26.12;nan;101318.03;5025293;28;20084;-67
2022/06/22 05:54:23;;;;;;;1.52;1.33;;;;;;;26.13;nan;101322.47;5020304;28;20514;-68
2022/06/22 05:56:54;;;;;;;1.67;1.50;;;;;;;26.17;nan;101332.06;5020795;28;20046;-67
2022/06/22 05:59:45;;;;;;;2.65;1.48;;;;;;;26.22;nan;101338.09;5025185;28;20284;-68
2022/06/22 06:02:15;;;;;;;2.60;1.58;;;;;;;26.25;nan;101331.78;5036709;28;20030;-67
2022/06/22 06:05:03;;;;;;;2.53;1.40;;;;;;;26.28;nan;101328.97;5032258;28;20025;-67
2022/06/22 06:07:43;;;;;;;1.90;1.48;;;;;;;26.31;nan;101333.31;5016144;28;20080;-67
2022/06/22 06:10:20;;;;;;;1.50;1.40;;;;;;;26.34;nan;101335.84;5022496;28;20033;-67
2022/06/22 06:13:01;;;;;;;2.20;1.50;;;;;;;26.38;nan;101340.13;5011915;28;20104;-67
2022/06/22 06:15:30;;;;;;;1.80;1.38;;;;;;;26.40;nan;101338.25;5034835;28;20479;-67
2022/06/22 06:17:57;;;;;;;2.08;1.42;;;;;;;26.43;nan;101335.44;5034672;28;20120;-67
2022/06/22 06:20:32;;;;;;;2.20;1.40;;;;;;;26.47;nan;101337.03;5034171;28;20033;-68
2022/06/22 06:23:07;;;;;;;2.03;1.60;;;;;;;26.50;nan;101334.22;5017533;28;20025;-67
2022/06/22 06:28:58;;;;;;;2.80;1.50;;;;;;;26.56;nan;101334.81;5019765;28;20129;-67
2022/06/22 06:31:36;;;;;;;2.67;1.55;;;;;;;26.58;nan;101345.44;5029524;28;20037;-68
2022/06/22 06:34:09;;;;;;;2.90;1.60;;;;;;;26.61;nan;101347.97;5027560;28;20034;-67
2022/06/22 06:36:52;;;;;;;8.20;1.60;;;;;;;26.64;nan;101345.16;5020352;28;20056;-67
2022/06/22 06:39:22;;;;;;;2.87;1.60;;;;;;;26.67;nan;101347.69;5016248;28;20054;-67
2022/06/22 06:42:03;;;;;;;11.38;2.00;;;;;;;26.69;nan;101339.59;5014929;28;20287;-68
2022/06/22 06:44:31;;;;;;;6.40;1.67;;;;;;;26.71;nan;101340.41;5016187;28;20117;-68
2022/06/22 06:47:05;;;;;;;3.40;1.63;;;;;;;26.75;nan;101339.31;5030789;28;20487;-67
2022/06/22 06:49:34;;;;;;;5.47;1.50;;;;;;;26.77;nan;101337.44;5030226;28;20101;-68
2022/06/22 06:52:19;;;;;;;4.50;1.55;;;;;;;26.79;nan;101344.44;5029438;28;20029;-67
2022/06/22 06:54:54;;;;;;;2.72;1.77;;;;;;;26.82;nan;101332.75;5025280;28;20033;-67
2022/06/22 06:57:22;;;;;;;4.40;1.70;;;;;;;26.84;nan;101337.06;5034632;28;20487;-68
2022/06/22 06:59:54;;;;;;;14.23;1.90;;;;;;;26.85;nan;101340.59;5033889;28;20454;-67
2022/06/22 07:02:32;;;;;;;7.95;1.73;;;;;;;26.87;nan;101339.59;5034332;28;20489;-67
2022/06/22 07:05:00;;;;;;;3.78;1.60;;;;;;;26.90;nan;101352.00;5034209;28;20488;-67
2022/06/22 07:07:48;;;;;;;7.53;1.50;;;;;;;26.91;nan;101346.56;5034110;28;20104;-67
2022/06/22 07:10:20;;;;;;;4.05;1.40;;;;;;;26.95;nan;101350.00;5034090;28;20025;-67
2022/06/22 07:12:52;;;;;;;3.72;1.90;;;;;;;27.00;nan;101346.16;5034842;28;20121;-66
2022/06/22 07:15:23;;;;;;;4.38;1.60;;;;;;;27.02;nan;101346.94;5011558;28;20038;-67
2022/06/22 07:17:51;;;;;;;4.95;1.58;;;;;;;27.06;nan;101350.34;5020133;28;20103;-67
2022/06/22 07:20:22;;;;;;;3.83;1.58;;;;;;;27.09;nan;101349.31;5021313;28;20057;-66
2022/06/22 07:22:59;;;;;;;6.45;1.85;;;;;;;27.13;nan;101342.91;5011842;28;20025;-67
2022/06/22 07:25:38;;;;;;;8.23;1.80;;;;;;;27.18;nan;101346.22;5023755;28;20639;-67
2022/06/22 07:28:15;;;;;;;2.78;1.50;;;;;;;27.22;nan;101354.00;5015536;28;20025;-68
2022/06/22 07:30:50;;;;;;;7.15;1.63;;;;;;;27.31;nan;101356.25;5005502;28;20108;-66
2022/06/22 07:33:33;;;;;;;7.15;1.60;;;;;;;27.39;nan;101355.88;5009638;28;20033;-67
2022/06/22 07:36:04;;;;;;;2.78;1.50;;;;;;;27.43;nan;101350.31;5022688;28;20364;-67
2022/06/22 07:38:48;;;;;;;6.70;1.58;;;;;;;27.45;nan;101353.75;5026591;28;20045;-67
2022/06/22 07:41:20;;;;;;;4.20;1.70;;;;;;;27.31;nan;101363.44;5016058;28;20025;-68
2022/06/22 07:43:51;;;;;;;4.32;1.90;;;;;;;27.37;nan;101358.66;5021749;28;20025;-65
2022/06/22 07:46:25;;;;;;;6.72;2.10;;;;;;;27.38;nan;101360.38;5023633;28;20399;-64
2022/06/22 07:48:53;;;;;;;2.85;1.60;;;;;;;27.44;nan;101357.41;5015333;28;20014;-64
2022/06/22 07:51:27;;;;;;;6.05;1.80;;;;;;;27.45;nan;101352.91;5019455;28;20026;-64
2022/06/22 07:54:10;;;;;;;2.85;1.70;;;;;;;27.50;nan;101350.88;5021229;28;20084;-64
2022/06/22 07:56:55;;;;;;;4.40;1.67;;;;;;;27.56;nan;101355.09;5015644;28;20076;-64
2022/06/22 07:59:27;;;;;;;3.13;1.55;;;;;;;27.56;nan;101350.59;5017170;28;20316;-66
2022/06/22 08:01:58;;;;;;;3.97;1.70;;;;;;;27.58;nan;101351.38;5016686;28;20029;-67
2022/06/22 08:04:41;;;;;;;3.35;1.70;;;;;;;27.59;nan;101341.53;5012836;28;20068;-67
2022/06/22 08:07:10;;;;;;;;;;;;;;;27.68;nan;101338.41;5019689;28;20025;-66
2022/06/22 08:09:44;;;;;;;5.22;1.98;;;;;;;27.68;nan;101343.78;5022489;28;20291;-66
2022/06/22 08:12:18;;;;;;;4.47;1.50;;;;;;;27.70;nan;101341.88;5010919;28;20083;-67
2022/06/22 08:14:45;;;;;;;;;;;;;;;27.73;nan;101345.28;5016971;28;20029;-68
2022/06/22 08:17:37;;;;;;;7.75;2.10;;;;;;;27.69;nan;101341.00;5023222;28;19917;-67
2022/06/22 08:20:04;;;;;;;4.13;1.83;;;;;;;27.61;nan;101348.56;5014631;28;20038;-67
2022/06/22 08:22:29;;;;;;;3.58;1.80;;;;;;;27.54;nan;101346.25;5026603;28;20387;-67
2022/06/22 08:24:57;;;;;;;3.95;1.80;;;;;;;27.52;nan;101353.50;5013860;28;20057;-68
2022/06/22 08:27:27;;;;;;;3.05;1.80;;;;;;;27.46;nan;101355.50;5012586;28;20033;-67
2022/06/22 08:29:53;;;;;;;4.30;2.00;;;;;;;27.52;nan;101345.47;5014168;28;20018;-67
2022/06/22 08:32:31;;;;;;;5.38;1.95;;;;;;;27.48;nan;101339.38;5025475;28;20029;-68
2022/06/22 08:35:04;;;;;;;5.03;2.00;;;;;;;27.49;nan;101346.47;5024293;28;20025;-68
2022/06/22 08:37:35;;;;;;;5.05;1.92;;;;;;;27.49;nan;101343.78;5014037;28;20507;-67
2022/06/22 08:40:31;;;;;;;5.35;1.92;;;;;;;27.50;nan;101345.53;5014817;28;20025;-67
2022/06/22 08:43:15;;;;;;;3.30;1.85;;;;;;;27.50;nan;101339.28;5041148;28;20037;-68
2022/06/22 08:46:13;;;;;;;3.05;1.88;;;;;;;27.49;nan;101340.25;5016889;28;20523;-67
2022/06/22 08:49:06;;;;;;;5.80;2.00;;;;;;;27.50;nan;101345.53;5015097;28;20091;-68
2022/06/22 08:52:02;;;;;;;5.70;1.90;;;;;;;27.54;nan;101343.59;5010635;28;20034;-68
2022/06/22 08:54:39;;;;;;;3.08;1.80;;;;;;;27.49;nan;101338.44;5024039;28;20053;-66
2022/06/22 08:57:12;;;;;;;3.22;1.90;;;;;;;27.45;nan;101334.16;5016868;28;20042;-66
2022/06/22 08:59:49;;;;;;;2.93;1.70;;;;;;;27.45;nan;101343.06;5016334;28;20481;-67
2022/06/22 09:02:30;;;;;;;3.17;1.90;;;;;;;27.51;nan;101343.72;5004240;28;20034;-66
2022/06/22 09:05:22;;;;;;;3.40;2.15;;;;;;;27.54;nan;101336.41;5013278;28;20036;-67
2022/06/22 09:08:01;;;;;;;4.50;1.98;;;;;;;27.51;nan;101341.03;5014343;28;20030;-67
2022/06/22 09:10:39;;;;;;;2.67;1.88;;;;;;;27.53;nan;101334.69;5017971;28;20741;-66
2022/06/22 09:13:15;;;;;;;3.13;1.90;;;;;;;27.60;nan;101340.59;5016549;28;20029;-66
2022/06/22 09:15:59;;;;;;;4.25;1.75;;;;;;;27.66;nan;101349.19;5020912;28;20160;-67
2022/06/22 09:18:40;;;;;;;6.03;2.05;;;;;;;27.65;nan;101344.78;5007357;28;20733;-68
2022/06/22 09:21:21;;;;;;;5.47;1.90;;;;;;;27.64;nan;101344.84;5020440;28;20033;-66
2022/06/22 09:23:55;;;;;;;6.28;2.05;;;;;;;27.80;nan;101343.16;5007391;28;20373;-68
2022/06/22 09:26:54;;;;;;;4.20;2.00;;;;;;;27.85;nan;101350.00;5026075;28;20076;-67
2022/06/22 09:29:25;;;;;;;4.65;1.90;;;;;;;27.83;nan;101354.56;5023796;28;20067;-67
2022/06/22 09:31:53;;;;;;;5.85;2.10;;;;;;;27.88;nan;101364.19;5029471;28;20744;-67
2022/06/22 09:34:48;;;;;;;4.88;2.00;;;;;;;27.91;nan;101361.34;5023486;28;20037;-67
2022/06/22 09:37:19;;;;;;;3.35;1.83;;;;;;;27.94;nan;101362.06;5026910;28;20021;-67
2022/06/22 09:40:08;;;;;;;11.30;2.10;;;;;;;27.88;nan;101369.53;5002105;28;78860;-75
2022/06/22 09:42:42;;;;;;;6.03;2.08;;;;;;;27.94;nan;101369.22;5010954;28;20026;-76
2022/06/22 09:45:11;;;;;;;7.60;2.20;;;;;;;27.99;nan;101365.41;5011148;28;20524;-73
2022/06/22 09:47:53;;;;;;;6.07;2.33;;;;;;;28.07;nan;101364.97;5012212;28;20033;-78
2022/06/22 09:50:43;;;;;;;5.07;2.10;;;;;;;27.89;nan;101368.59;5011773;28;20522;-73
2022/06/22 09:53:44;;;;;;;8.48;2.10;;;;;;;27.84;nan;101372.38;5011669;28;20033;-73
2022/06/22 09:56:27;;;;;;;5.38;2.15;;;;;;;27.80;nan;101375.31;5010491;28;20032;-73
2022/06/22 09:59:20;;;;;;;3.38;2.08;;;;;;;27.76;nan;101373.69;5013149;28;20026;-74
2022/06/22 10:01:48;;;;;;;7.30;2.00;;;;;;;27.79;nan;101373.56;5012021;28;20037;-68
2022/06/22 10:04:44;;;;;;;6.63;2.20;;;;;;;27.95;nan;101374.50;5012429;28;20312;-68
2022/06/22 10:07:18;;;;;;;5.18;2.42;;;;;;;28.11;nan;101372.81;5011885;28;20088;-69
2022/06/22 10:10:08;;;;;;;4.60;2.03;;;;;;;28.10;nan;101365.69;5011864;28;20018;-69
2022/06/22 10:13:00;;;;;;;5.00;2.10;;;;;;;28.14;nan;101351.22;5011330;28;20050;-69
2022/06/22 10:15:34;;;;;;;4.13;1.98;;;;;;;28.13;nan;101367.34;5012161;28;20124;-70
2022/06/22 10:18:52;;;;;;;5.15;2.20;;;;;;;28.22;nan;101361.53;5011566;28;20037;-69
2022/06/22 10:21:32;;;;;;;3.83;2.13;;;;;;;28.19;nan;101361.69;4999624;28;20044;-69
2022/06/22 10:24:22;;;;;;;5.57;2.50;;;;;;;28.21;nan;101373.22;5011617;28;20480;-69
2022/06/22 10:27:09;;;;;;;8.27;2.33;;;;;;;28.23;nan;101368.66;5009585;28;20116;-69
2022/06/22 10:29:56;;;;;;;4.32;2.13;;;;;;;28.28;nan;101376.44;5012300;28;20096;-69
2022/06/22 10:33:08;;;;;;;4.65;2.15;;;;;;;28.28;nan;101366.59;5012670;28;20026;-69
2022/06/22 10:35:58;;;;;;;6.70;2.42;;;;;;;28.33;nan;101358.28;4993101;28;20369;-69
2022/06/22 10:38:32;;;;;;;6.65;2.40;;;;;;;28.18;nan;101352.78;5020321;28;20056;-73
2022/06/22 10:47:21;;;;;;;4.72;2.30;;;;;;;28.04;nan;101349.06;5008455;28;20048;-73
2022/06/22 10:50:18;;;;;;;10.98;2.00;;;;;;;28.05;nan;101343.63;5028761;28;20075;-72
2022/06/22 10:52:44;;;;;;;6.93;2.40;;;;;;;28.18;nan;101333.13;5028942;28;20037;-72
2022/06/22 10:55:24;;;;;;;4.55;2.00;;;;;;;27.98;nan;101344.03;5028635;28;20029;-71
2022/06/22 10:58:07;;;;;;;4.50;2.13;;;;;;;28.07;nan;101344.41;5031110;28;20045;-72
2022/06/22 11:00:55;;;;;;;8.40;2.08;;;;;;;28.22;nan;101332.94;5029093;28;20037;-70
2022/06/22 11:03:32;;;;;;;6.20;2.13;;;;;;;28.04;nan;101330.31;5030108;28;20869;-73
2022/06/22 11:06:22;;;;;;;5.38;2.10;;;;;;;28.14;nan;101327.09;5030877;28;20033;-70
2022/06/22 11:08:53;;;;;;;4.57;2.00;;;;;;;28.21;nan;101328.50;5029859;28;20021;-67
2022/06/22 11:11:30;;;;;;;3.00;1.98;;;;;;;28.19;nan;101325.03;5029459;28;20021;-74
2022/06/22 11:14:36;;;;;;;5.20;2.22;;;;;;;28.09;nan;101313.03;5027419;28;20375;-73
2022/06/22 11:17:13;;;;;;;3.38;2.10;;;;;;;28.01;nan;101303.66;5018840;28;20507;-73
2022/06/22 11:20:03;;;;;;;5.72;2.42;;;;;;;27.99;nan;101305.56;5029513;28;20025;-73
2022/06/22 11:22:45;;;;;;;4.47;2.13;;;;;;;28.04;nan;101309.72;5028078;28;20095;-71
2022/06/22 11:31:33;;;;;;;4.15;2.28;;;;;;;28.36;nan;101310.72;5028360;28;20123;-67
2022/06/22 11:34:20;;;;;;;3.75;1.98;;;;;;;28.51;nan;101311.72;5029056;28;20407;-68
2022/06/22 11:37:24;;;;;;;5.03;2.15;;;;;;;-141.95;100.00;57075.63;5029503;28;20033;-68
2022/06/22 11:40:02;;;;;;;3.58;2.08;;;;;;;-141.95;100.00;57075.63;4967728;28;20532;-68
2022/06/22 11:42:46;;;;;;;3.78;2.17;;;;;;;-141.95;100.00;57075.63;4967070;28;20046;-69
2022/06/22 11:48:56;;;;;;;3.53;1.98;;;;;;;-141.95;100.00;57075.63;5029194;28;20094;-69
2022/06/22 11:51:58;;;;;;;6.15;2.20;;;;;;;-141.95;100.00;57075.63;5003147;28;20045;-68
2022/06/22 11:54:38;;;;;;;4.25;1.75;;;;;;;-141.95;100.00;57075.63;5028455;28;20064;-69
2022/06/22 11:57:08;;;;;;;4.68;1.90;;;;;;;-141.95;100.00;57075.63;5028603;28;20029;-68
2022/06/22 11:59:39;;;;;;;4.18;2.10;;;;;;;-141.95;100.00;57075.63;5028865;28;20021;-66
2022/06/22 12:02:23;;;;;;;5.78;1.90;;;;;;;-141.95;100.00;57075.63;5028821;28;20037;-68
2022/06/22 12:05:11;;;;;;;6.78;2.00;;;;;;;-141.95;100.00;57075.63;5028684;28;20028;-68
2022/06/22 12:07:36;;;;;;;3.05;1.90;;;;;;;-141.95;100.00;57075.63;5028966;28;20033;-69
2022/06/22 12:10:39;;;;;;;3.40;1.92;;;;;;;-141.95;100.00;57075.63;5028158;28;20391;-68
2022/06/22 12:13:32;;;;;;;6.00;1.90;;;;;;;-141.95;100.00;57075.63;5004855;28;20148;-68
2022/06/22 12:16:08;;;;;;;3.78;1.92;;;;;;;-141.95;100.00;57075.63;5028122;28;20037;-68
2022/06/22 12:19:05;;;;;;;3.80;2.00;;;;;;;-141.95;100.00;57075.63;5028569;28;20052;-68
2022/06/22 12:21:55;;;;;;;3.60;1.83;;;;;;;-141.95;100.00;57075.63;5025272;28;20120;-68
2022/06/22 12:24:36;;;;;;;2.83;1.80;;;;;;;-141.95;100.00;57075.63;5028574;28;20099;-68
2022/06/22 12:27:04;;;;;;;2.97;1.70;;;;;;;-141.95;100.00;57075.63;5027828;28;20029;-68
2022/06/22 12:29:37;;;;;;;2.70;1.70;;;;;;;-141.95;100.00;57075.63;5028463;28;20033;-68
2022/06/22 12:32:17;;;;;;;2.92;1.88;;;;;;;-141.95;100.00;57075.63;5028630;28;20458;-69
2022/06/22 12:35:16;;;;;;;3.85;1.98;;;;;;;-141.95;100.00;57075.63;5025932;28;20678;-68
2022/06/22 12:37:53;;;;;;;2.22;1.73;;;;;;;-141.95;100.00;57075.63;5026572;28;20116;-68
2022/06/22 12:40:29;;;;;;;2.70;1.77;;;;;;;-141.95;100.00;57075.63;5027843;28;20436;-68
2022/06/22 12:43:09;;;;;;;2.55;1.70;;;;;;;-141.95;100.00;57075.63;5028614;28;20037;-68
2022/06/22 12:45:52;;;;;;;1.83;1.60;;;;;;;-141.95;100.00;57075.63;5026995;28;20036;-68
2022/06/22 12:48:26;;;;;;;4.68;1.85;;;;;;;-141.95;100.00;57075.63;5027847;28;20112;-68
2022/06/22 12:51:21;;;;;;;2.92;1.90;;;;;;;-141.95;100.00;57075.63;5028230;28;20037;-68